This is the latest recevied weather packets stored in our database for station/object OSTR-WX. If no packets are shown the sender has not sent any weather packets the latest 10 day(s).
| Time | Temp. | Humidity | Pressure | Rain* | Wind** | Luminosity | Snow |
|---|---|---|---|---|---|---|---|
| 1777886526 | 23.89° C | 42% | 1015.5 hPa | - | - | - | - |
| 1777885574 | 22.78° C | 52% | 1015.7 hPa | - | - | - | - |
| 1777885567 | 22.78° C | 52% | 1015.7 hPa | - | - | - | - |
| 1777884610 | 22.22° C | 47% | 1015.9 hPa | - | - | - | - |
| 1777883654 | 21.67° C | 48% | 1015.9 hPa | - | - | - | - |
| 1777882696 | 21.11° C | 54% | 1016 hPa | - | - | - | - |
| 1777881913 | 20° C | 59% | 1016.3 hPa | - | - | - | - |
| 1777881740 | 20° C | 59% | 1016.3 hPa | - | - | - | - |
| 1777880882 | 19.44° C | 60% | 1016.3 hPa | - | - | - | - |
| 1777880783 | 19.44° C | 60% | 1016.3 hPa | - | - | - | - |
| 1777879832 | 18.33° C | 69% | 1016.4 hPa | - | - | - | - |
| 1777879825 | 18.33° C | 69% | 1016.4 hPa | - | - | - | - |
| 1777878868 | 17.78° C | 67% | 1016.6 hPa | - | - | - | - |
| 1777877911 | 16.11° C | 76% | 1016.8 hPa | - | - | - | - |
| 1777876961 | 14.44° C | 78% | 1017 hPa | - | - | - | - |
| 1777876955 | 14.44° C | 78% | 1017 hPa | - | - | - | - |
| 1777876309 | 13.89° C | 81% | 1017.1 hPa | - | - | - | - |
| 1777875997 | 13.89° C | 81% | 1017.1 hPa | - | - | - | - |
| 1777875047 | 11.67° C | 87% | 1017.3 hPa | - | - | - | - |
| 1777875040 | 11.67° C | 87% | 1017.3 hPa | - | - | - | - |
| 1777874083 | 11.11° C | 88% | 1017.4 hPa | - | - | - | - |
| 1777873132 | 8.33° C | 96% | 1017.6 hPa | - | - | - | - |
| 1777873126 | 8.33° C | 96% | 1017.6 hPa | - | - | - | - |
| 1777872175 | 6.11° C | 100% | 1018.1 hPa | - | - | - | - |
| 1777872169 | 6.11° C | 100% | 1018.1 hPa | - | - | - | - |
* Rain since midnight (hover to see other rain measurements)
** Current wind speed in m/s (hover to see current wind gust speed)